sensor_id;sensor_type;location;lat;lon;timestamp;P1;durP1;ratioP1;P2;durP2;ratioP2
7479;SDS011;3781;42.272;22.658;2023-12-22T00:00:43;12.60;;;7.70;;
7479;SDS011;3781;42.272;22.658;2023-12-22T00:03:12;43.17;;;10.80;;
7479;SDS011;3781;42.272;22.658;2023-12-22T00:05:39;5.77;;;5.30;;
7479;SDS011;3781;42.272;22.658;2023-12-22T00:08:07;3.77;;;3.50;;
7479;SDS011;3781;42.272;22.658;2023-12-22T00:10:34;11.53;;;7.83;;
7479;SDS011;3781;42.272;22.658;2023-12-22T00:13:01;20.00;;;10.83;;
7479;SDS011;3781;42.272;22.658;2023-12-22T00:15:27;14.27;;;7.50;;
7479;SDS011;3781;42.272;22.658;2023-12-22T00:17:54;10.63;;;6.90;;
7479;SDS011;3781;42.272;22.658;2023-12-22T00:20:21;3.90;;;2.97;;
7479;SDS011;3781;42.272;22.658;2023-12-22T00:22:48;4.17;;;3.57;;
7479;SDS011;3781;42.272;22.658;2023-12-22T00:25:16;9.50;;;4.10;;
7479;SDS011;3781;42.272;22.658;2023-12-22T00:27:43;3.10;;;1.60;;
7479;SDS011;3781;42.272;22.658;2023-12-22T00:30:10;2.60;;;2.40;;
7479;SDS011;3781;42.272;22.658;2023-12-22T00:32:37;7.60;;;3.00;;
7479;SDS011;3781;42.272;22.658;2023-12-22T00:35:04;3.30;;;2.23;;
7479;SDS011;3781;42.272;22.658;2023-12-22T00:37:31;2.47;;;1.53;;
7479;SDS011;3781;42.272;22.658;2023-12-22T00:39:58;1.80;;;1.70;;
7479;SDS011;3781;42.272;22.658;2023-12-22T00:42:27;7.43;;;5.50;;
7479;SDS011;3781;42.272;22.658;2023-12-22T00:44:54;4.23;;;3.93;;
7479;SDS011;3781;42.272;22.658;2023-12-22T00:47:20;6.57;;;4.13;;
7479;SDS011;3781;42.272;22.658;2023-12-22T00:49:47;8.00;;;3.30;;
7479;SDS011;3781;42.272;22.658;2023-12-22T00:52:14;10.03;;;5.50;;
7479;SDS011;3781;42.272;22.658;2023-12-22T00:54:41;20.33;;;7.30;;
7479;SDS011;3781;42.272;22.658;2023-12-22T00:57:08;7.03;;;5.57;;
7479;SDS011;3781;42.272;22.658;2023-12-22T00:59:36;15.40;;;7.90;;
7479;SDS011;3781;42.272;22.658;2023-12-22T01:02:03;13.37;;;8.63;;
7479;SDS011;3781;42.272;22.658;2023-12-22T01:04:30;27.03;;;12.23;;
7479;SDS011;3781;42.272;22.658;2023-12-22T01:06:57;17.77;;;11.43;;
7479;SDS011;3781;42.272;22.658;2023-12-22T01:09:24;40.10;;;16.30;;
7479;SDS011;3781;42.272;22.658;2023-12-22T01:11:50;43.20;;;26.20;;
7479;SDS011;3781;42.272;22.658;2023-12-22T01:14:17;27.53;;;17.77;;
7479;SDS011;3781;42.272;22.658;2023-12-22T01:16:45;29.90;;;15.90;;
7479;SDS011;3781;42.272;22.658;2023-12-22T01:19:12;31.83;;;15.80;;
7479;SDS011;3781;42.272;22.658;2023-12-22T01:21:39;28.63;;;14.03;;
7479;SDS011;3781;42.272;22.658;2023-12-22T01:24:06;27.13;;;13.63;;
7479;SDS011;3781;42.272;22.658;2023-12-22T01:26:32;44.07;;;17.33;;
7479;SDS011;3781;42.272;22.658;2023-12-22T01:28:59;39.60;;;14.37;;
7479;SDS011;3781;42.272;22.658;2023-12-22T01:31:26;38.67;;;13.17;;
7479;SDS011;3781;42.272;22.658;2023-12-22T01:33:54;2.50;;;2.40;;
7479;SDS011;3781;42.272;22.658;2023-12-22T01:36:21;16.73;;;7.47;;
7479;SDS011;3781;42.272;22.658;2023-12-22T01:38:48;21.17;;;9.77;;
7479;SDS011;3781;42.272;22.658;2023-12-22T01:41:15;22.47;;;14.60;;
7479;SDS011;3781;42.272;22.658;2023-12-22T01:43:41;21.27;;;15.47;;
7479;SDS011;3781;42.272;22.658;2023-12-22T01:46:08;34.27;;;15.03;;
7479;SDS011;3781;42.272;22.658;2023-12-22T01:48:36;23.50;;;13.57;;
7479;SDS011;3781;42.272;22.658;2023-12-22T01:51:05;28.73;;;14.53;;
7479;SDS011;3781;42.272;22.658;2023-12-22T01:53:33;3.33;;;2.60;;
7479;SDS011;3781;42.272;22.658;2023-12-22T01:56:01;3.37;;;2.93;;
7479;SDS011;3781;42.272;22.658;2023-12-22T01:58:28;1.43;;;1.33;;
7479;SDS011;3781;42.272;22.658;2023-12-22T02:00:59;2.13;;;1.73;;
7479;SDS011;3781;42.272;22.658;2023-12-22T02:03:26;3.60;;;3.40;;
7479;SDS011;3781;42.272;22.658;2023-12-22T02:05:53;2.10;;;1.37;;
7479;SDS011;3781;42.272;22.658;2023-12-22T02:08:22;3.77;;;3.30;;
7479;SDS011;3781;42.272;22.658;2023-12-22T02:10:50;19.40;;;6.07;;
7479;SDS011;3781;42.272;22.658;2023-12-22T02:13:17;29.73;;;11.97;;
7479;SDS011;3781;42.272;22.658;2023-12-22T02:15:44;15.33;;;10.77;;
7479;SDS011;3781;42.272;22.658;2023-12-22T02:18:14;15.03;;;10.43;;
7479;SDS011;3781;42.272;22.658;2023-12-22T02:20:45;20.80;;;14.50;;
7479;SDS011;3781;42.272;22.658;2023-12-22T02:23:13;8.57;;;6.13;;
7479;SDS011;3781;42.272;22.658;2023-12-22T02:25:40;23.47;;;11.83;;
7479;SDS011;3781;42.272;22.658;2023-12-22T02:28:07;15.17;;;8.13;;
7479;SDS011;3781;42.272;22.658;2023-12-22T02:30:38;22.97;;;10.37;;
7479;SDS011;3781;42.272;22.658;2023-12-22T02:33:09;21.30;;;10.10;;
7479;SDS011;3781;42.272;22.658;2023-12-22T02:35:38;55.40;;;11.90;;
7479;SDS011;3781;42.272;22.658;2023-12-22T02:38:07;23.77;;;14.73;;
7479;SDS011;3781;42.272;22.658;2023-12-22T02:40:36;34.53;;;14.67;;
7479;SDS011;3781;42.272;22.658;2023-12-22T02:43:03;31.00;;;20.03;;
7479;SDS011;3781;42.272;22.658;2023-12-22T02:45:32;30.10;;;14.87;;
7479;SDS011;3781;42.272;22.658;2023-12-22T02:47:59;40.00;;;14.83;;
7479;SDS011;3781;42.272;22.658;2023-12-22T02:50:26;19.07;;;12.27;;
7479;SDS011;3781;42.272;22.658;2023-12-22T02:52:53;22.43;;;13.83;;
7479;SDS011;3781;42.272;22.658;2023-12-22T02:55:20;23.13;;;13.90;;
7479;SDS011;3781;42.272;22.658;2023-12-22T02:57:48;22.90;;;13.13;;
7479;SDS011;3781;42.272;22.658;2023-12-22T03:00:15;27.53;;;14.17;;
7479;SDS011;3781;42.272;22.658;2023-12-22T03:02:42;25.80;;;13.57;;
7479;SDS011;3781;42.272;22.658;2023-12-22T03:05:08;34.57;;;13.17;;
7479;SDS011;3781;42.272;22.658;2023-12-22T03:07:35;12.87;;;11.53;;
7479;SDS011;3781;42.272;22.658;2023-12-22T03:10:02;7.13;;;6.37;;
7479;SDS011;3781;42.272;22.658;2023-12-22T03:12:29;18.00;;;12.33;;
7479;SDS011;3781;42.272;22.658;2023-12-22T03:14:56;16.57;;;6.33;;
7479;SDS011;3781;42.272;22.658;2023-12-22T03:17:23;10.97;;;9.77;;
7479;SDS011;3781;42.272;22.658;2023-12-22T03:19:50;27.40;;;13.43;;
7479;SDS011;3781;42.272;22.658;2023-12-22T03:22:17;19.37;;;13.53;;
7479;SDS011;3781;42.272;22.658;2023-12-22T03:24:43;15.07;;;10.17;;
7479;SDS011;3781;42.272;22.658;2023-12-22T03:27:10;39.57;;;16.67;;
7479;SDS011;3781;42.272;22.658;2023-12-22T03:29:41;19.23;;;11.33;;
7479;SDS011;3781;42.272;22.658;2023-12-22T03:32:09;11.10;;;9.97;;
7479;SDS011;3781;42.272;22.658;2023-12-22T03:34:36;21.93;;;13.10;;
7479;SDS011;3781;42.272;22.658;2023-12-22T03:37:03;23.50;;;8.60;;
7479;SDS011;3781;42.272;22.658;2023-12-22T03:39:30;21.60;;;9.57;;
7479;SDS011;3781;42.272;22.658;2023-12-22T03:41:56;14.10;;;9.80;;
7479;SDS011;3781;42.272;22.658;2023-12-22T03:44:24;30.40;;;13.97;;
7479;SDS011;3781;42.272;22.658;2023-12-22T03:46:51;14.00;;;7.80;;
7479;SDS011;3781;42.272;22.658;2023-12-22T03:49:19;1.93;;;1.83;;
7479;SDS011;3781;42.272;22.658;2023-12-22T03:51:46;14.40;;;9.90;;
7479;SDS011;3781;42.272;22.658;2023-12-22T03:54:12;34.77;;;12.57;;
7479;SDS011;3781;42.272;22.658;2023-12-22T03:56:41;13.87;;;8.27;;
7479;SDS011;3781;42.272;22.658;2023-12-22T03:59:07;6.47;;;3.47;;
7479;SDS011;3781;42.272;22.658;2023-12-22T04:01:34;11.33;;;7.57;;
7479;SDS011;3781;42.272;22.658;2023-12-22T04:04:01;11.97;;;7.67;;
7479;SDS011;3781;42.272;22.658;2023-12-22T04:06:29;6.80;;;6.13;;
7479;SDS011;3781;42.272;22.658;2023-12-22T04:08:56;4.73;;;4.10;;
7479;SDS011;3781;42.272;22.658;2023-12-22T04:11:23;11.10;;;8.07;;
7479;SDS011;3781;42.272;22.658;2023-12-22T04:13:49;10.20;;;9.17;;
7479;SDS011;3781;42.272;22.658;2023-12-22T04:16:16;23.27;;;10.13;;
7479;SDS011;3781;42.272;22.658;2023-12-22T04:18:43;22.77;;;9.37;;
7479;SDS011;3781;42.272;22.658;2023-12-22T04:21:10;19.20;;;10.07;;
7479;SDS011;3781;42.272;22.658;2023-12-22T04:23:38;24.67;;;10.93;;
7479;SDS011;3781;42.272;22.658;2023-12-22T04:26:04;33.80;;;13.80;;
7479;SDS011;3781;42.272;22.658;2023-12-22T04:28:31;23.80;;;6.90;;
7479;SDS011;3781;42.272;22.658;2023-12-22T04:30:58;35.27;;;10.83;;
7479;SDS011;3781;42.272;22.658;2023-12-22T04:33:25;18.70;;;11.57;;
7479;SDS011;3781;42.272;22.658;2023-12-22T04:35:52;9.37;;;7.50;;
7479;SDS011;3781;42.272;22.658;2023-12-22T04:38:19;28.00;;;14.53;;
7479;SDS011;3781;42.272;22.658;2023-12-22T04:40:47;30.03;;;18.17;;
7479;SDS011;3781;42.272;22.658;2023-12-22T04:43:14;32.23;;;18.33;;
7479;SDS011;3781;42.272;22.658;2023-12-22T04:45:41;37.83;;;19.10;;
7479;SDS011;3781;42.272;22.658;2023-12-22T04:48:08;18.40;;;11.83;;
7479;SDS011;3781;42.272;22.658;2023-12-22T04:50:34;21.13;;;15.40;;
7479;SDS011;3781;42.272;22.658;2023-12-22T04:53:01;31.50;;;17.23;;
7479;SDS011;3781;42.272;22.658;2023-12-22T04:55:28;30.97;;;14.43;;
7479;SDS011;3781;42.272;22.658;2023-12-22T04:57:56;39.03;;;15.07;;
7479;SDS011;3781;42.272;22.658;2023-12-22T05:00:23;29.03;;;18.43;;
7479;SDS011;3781;42.272;22.658;2023-12-22T05:02:50;15.00;;;8.33;;
7479;SDS011;3781;42.272;22.658;2023-12-22T05:05:18;20.57;;;14.53;;
7479;SDS011;3781;42.272;22.658;2023-12-22T05:07:44;22.93;;;10.17;;
7479;SDS011;3781;42.272;22.658;2023-12-22T05:10:11;28.70;;;14.03;;
7479;SDS011;3781;42.272;22.658;2023-12-22T05:12:38;13.07;;;11.70;;
7479;SDS011;3781;42.272;22.658;2023-12-22T05:15:07;41.40;;;16.97;;
7479;SDS011;3781;42.272;22.658;2023-12-22T05:17:35;38.50;;;16.87;;
7479;SDS011;3781;42.272;22.658;2023-12-22T05:20:02;24.57;;;13.20;;
7479;SDS011;3781;42.272;22.658;2023-12-22T05:22:29;18.13;;;10.90;;
7479;SDS011;3781;42.272;22.658;2023-12-22T05:24:57;25.80;;;15.67;;
7479;SDS011;3781;42.272;22.658;2023-12-22T05:27:25;6.23;;;5.30;;
7479;SDS011;3781;42.272;22.658;2023-12-22T05:29:52;30.20;;;10.70;;
7479;SDS011;3781;42.272;22.658;2023-12-22T05:32:20;20.70;;;9.90;;
7479;SDS011;3781;42.272;22.658;2023-12-22T05:34:49;13.73;;;12.40;;
7479;SDS011;3781;42.272;22.658;2023-12-22T05:37:15;32.10;;;12.87;;
7479;SDS011;3781;42.272;22.658;2023-12-22T05:39:42;11.63;;;10.43;;
7479;SDS011;3781;42.272;22.658;2023-12-22T05:42:10;34.00;;;16.53;;
7479;SDS011;3781;42.272;22.658;2023-12-22T05:44:37;25.00;;;15.30;;
7479;SDS011;3781;42.272;22.658;2023-12-22T05:47:04;15.47;;;11.40;;
7479;SDS011;3781;42.272;22.658;2023-12-22T05:49:32;22.50;;;12.20;;
7479;SDS011;3781;42.272;22.658;2023-12-22T05:51:59;26.03;;;14.10;;
7479;SDS011;3781;42.272;22.658;2023-12-22T05:54:26;42.17;;;14.93;;
7479;SDS011;3781;42.272;22.658;2023-12-22T05:56:52;29.00;;;11.03;;
7479;SDS011;3781;42.272;22.658;2023-12-22T05:59:19;36.13;;;14.07;;
7479;SDS011;3781;42.272;22.658;2023-12-22T06:01:46;16.67;;;14.10;;
7479;SDS011;3781;42.272;22.658;2023-12-22T06:04:13;28.10;;;14.30;;
7479;SDS011;3781;42.272;22.658;2023-12-22T06:06:41;22.13;;;9.93;;
7479;SDS011;3781;42.272;22.658;2023-12-22T06:09:09;26.33;;;15.40;;
7479;SDS011;3781;42.272;22.658;2023-12-22T06:11:37;42.90;;;15.83;;
7479;SDS011;3781;42.272;22.658;2023-12-22T06:14:04;39.73;;;13.10;;
7479;SDS011;3781;42.272;22.658;2023-12-22T06:16:31;20.13;;;13.97;;
7479;SDS011;3781;42.272;22.658;2023-12-22T06:18:58;30.33;;;13.60;;
7479;SDS011;3781;42.272;22.658;2023-12-22T06:21:25;25.87;;;12.20;;
7479;SDS011;3781;42.272;22.658;2023-12-22T06:23:53;32.83;;;21.03;;
7479;SDS011;3781;42.272;22.658;2023-12-22T06:26:20;22.87;;;12.50;;
7479;SDS011;3781;42.272;22.658;2023-12-22T06:28:47;31.43;;;14.13;;
7479;SDS011;3781;42.272;22.658;2023-12-22T06:31:17;7.67;;;6.93;;
7479;SDS011;3781;42.272;22.658;2023-12-22T06:33:45;34.50;;;13.20;;
7479;SDS011;3781;42.272;22.658;2023-12-22T06:36:17;15.17;;;12.33;;
7479;SDS011;3781;42.272;22.658;2023-12-22T06:38:45;34.00;;;16.03;;
7479;SDS011;3781;42.272;22.658;2023-12-22T06:41:18;14.97;;;10.93;;
7479;SDS011;3781;42.272;22.658;2023-12-22T06:43:46;23.10;;;13.30;;
7479;SDS011;3781;42.272;22.658;2023-12-22T06:46:14;25.27;;;15.27;;
7479;SDS011;3781;42.272;22.658;2023-12-22T06:48:42;26.53;;;9.83;;
7479;SDS011;3781;42.272;22.658;2023-12-22T06:51:16;31.20;;;14.37;;
7479;SDS011;3781;42.272;22.658;2023-12-22T06:53:43;17.50;;;9.77;;
7479;SDS011;3781;42.272;22.658;2023-12-22T06:56:14;32.50;;;14.37;;
7479;SDS011;3781;42.272;22.658;2023-12-22T06:58:43;33.17;;;11.20;;
7479;SDS011;3781;42.272;22.658;2023-12-22T07:01:11;34.67;;;11.23;;
7479;SDS011;3781;42.272;22.658;2023-12-22T07:03:38;27.07;;;15.97;;
7479;SDS011;3781;42.272;22.658;2023-12-22T07:06:05;11.17;;;8.57;;
7479;SDS011;3781;42.272;22.658;2023-12-22T07:08:32;12.50;;;8.80;;
7479;SDS011;3781;42.272;22.658;2023-12-22T07:10:59;12.00;;;10.63;;
7479;SDS011;3781;42.272;22.658;2023-12-22T07:13:26;30.83;;;10.73;;
7479;SDS011;3781;42.272;22.658;2023-12-22T07:15:54;31.70;;;14.00;;
7479;SDS011;3781;42.272;22.658;2023-12-22T07:18:20;24.07;;;15.03;;
7479;SDS011;3781;42.272;22.658;2023-12-22T07:20:47;9.90;;;7.73;;
7479;SDS011;3781;42.272;22.658;2023-12-22T07:23:14;11.73;;;10.43;;
7479;SDS011;3781;42.272;22.658;2023-12-22T07:25:41;31.63;;;11.07;;
7479;SDS011;3781;42.272;22.658;2023-12-22T07:28:07;7.40;;;4.30;;
7479;SDS011;3781;42.272;22.658;2023-12-22T07:30:34;16.53;;;9.60;;
7479;SDS011;3781;42.272;22.658;2023-12-22T07:33:03;8.07;;;6.97;;
7479;SDS011;3781;42.272;22.658;2023-12-22T07:35:30;7.80;;;2.97;;
7479;SDS011;3781;42.272;22.658;2023-12-22T07:37:57;7.80;;;7.10;;
7479;SDS011;3781;42.272;22.658;2023-12-22T07:40:24;12.50;;;7.87;;
7479;SDS011;3781;42.272;22.658;2023-12-22T07:42:51;25.00;;;13.17;;
7479;SDS011;3781;42.272;22.658;2023-12-22T07:45:18;19.57;;;11.13;;
7479;SDS011;3781;42.272;22.658;2023-12-22T07:47:45;18.17;;;8.77;;
7479;SDS011;3781;42.272;22.658;2023-12-22T07:50:13;21.20;;;11.53;;
7479;SDS011;3781;42.272;22.658;2023-12-22T07:52:40;22.47;;;9.37;;
7479;SDS011;3781;42.272;22.658;2023-12-22T07:55:07;16.20;;;10.17;;
7479;SDS011;3781;42.272;22.658;2023-12-22T07:57:35;39.80;;;13.40;;
7479;SDS011;3781;42.272;22.658;2023-12-22T08:00:04;30.23;;;14.67;;
7479;SDS011;3781;42.272;22.658;2023-12-22T08:02:31;19.10;;;11.93;;
7479;SDS011;3781;42.272;22.658;2023-12-22T08:04:58;18.80;;;13.07;;
7479;SDS011;3781;42.272;22.658;2023-12-22T08:07:27;22.73;;;11.13;;
7479;SDS011;3781;42.272;22.658;2023-12-22T08:09:55;9.07;;;8.13;;
7479;SDS011;3781;42.272;22.658;2023-12-22T08:12:22;23.13;;;12.30;;
7479;SDS011;3781;42.272;22.658;2023-12-22T08:14:49;33.40;;;19.07;;
7479;SDS011;3781;42.272;22.658;2023-12-22T08:17:15;44.10;;;17.13;;
7479;SDS011;3781;42.272;22.658;2023-12-22T08:19:42;39.93;;;15.73;;
7479;SDS011;3781;42.272;22.658;2023-12-22T08:22:09;45.50;;;22.13;;
7479;SDS011;3781;42.272;22.658;2023-12-22T08:24:39;31.93;;;16.80;;
7479;SDS011;3781;42.272;22.658;2023-12-22T08:27:06;40.10;;;17.53;;
7479;SDS011;3781;42.272;22.658;2023-12-22T08:29:33;37.67;;;18.07;;
7479;SDS011;3781;42.272;22.658;2023-12-22T08:32:00;40.63;;;20.10;;
7479;SDS011;3781;42.272;22.658;2023-12-22T08:34:27;28.43;;;17.43;;
7479;SDS011;3781;42.272;22.658;2023-12-22T08:36:54;53.87;;;18.43;;
7479;SDS011;3781;42.272;22.658;2023-12-22T08:39:21;36.87;;;20.30;;
7479;SDS011;3781;42.272;22.658;2023-12-22T08:41:50;26.97;;;16.77;;
7479;SDS011;3781;42.272;22.658;2023-12-22T08:44:18;37.23;;;21.23;;
7479;SDS011;3781;42.272;22.658;2023-12-22T08:46:45;37.33;;;22.73;;
7479;SDS011;3781;42.272;22.658;2023-12-22T08:49:12;57.40;;;27.10;;
7479;SDS011;3781;42.272;22.658;2023-12-22T08:51:39;62.63;;;29.03;;
7479;SDS011;3781;42.272;22.658;2023-12-22T08:54:08;67.63;;;27.80;;
7479;SDS011;3781;42.272;22.658;2023-12-22T08:56:35;69.40;;;32.27;;
7479;SDS011;3781;42.272;22.658;2023-12-22T08:59:03;60.93;;;31.77;;
7479;SDS011;3781;42.272;22.658;2023-12-22T09:01:30;52.53;;;26.87;;
7479;SDS011;3781;42.272;22.658;2023-12-22T09:03:57;49.00;;;25.13;;
7479;SDS011;3781;42.272;22.658;2023-12-22T09:06:24;75.13;;;27.97;;
7479;SDS011;3781;42.272;22.658;2023-12-22T09:08:51;57.00;;;30.07;;
7479;SDS011;3781;42.272;22.658;2023-12-22T09:11:18;65.90;;;31.57;;
7479;SDS011;3781;42.272;22.658;2023-12-22T09:13:46;80.77;;;34.63;;
7479;SDS011;3781;42.272;22.658;2023-12-22T09:16:19;74.80;;;36.90;;
7479;SDS011;3781;42.272;22.658;2023-12-22T09:18:47;76.70;;;31.03;;
7479;SDS011;3781;42.272;22.658;2023-12-22T09:21:14;46.93;;;24.23;;
7479;SDS011;3781;42.272;22.658;2023-12-22T09:23:42;47.40;;;24.20;;
7479;SDS011;3781;42.272;22.658;2023-12-22T09:26:11;51.57;;;22.50;;
7479;SDS011;3781;42.272;22.658;2023-12-22T09:28:38;39.10;;;22.93;;
7479;SDS011;3781;42.272;22.658;2023-12-22T09:31:05;49.57;;;23.20;;
7479;SDS011;3781;42.272;22.658;2023-12-22T09:33:34;42.63;;;22.30;;
7479;SDS011;3781;42.272;22.658;2023-12-22T09:36:01;44.47;;;25.70;;
7479;SDS011;3781;42.272;22.658;2023-12-22T09:38:28;45.77;;;27.10;;
7479;SDS011;3781;42.272;22.658;2023-12-22T09:40:55;39.27;;;23.83;;
7479;SDS011;3781;42.272;22.658;2023-12-22T09:43:22;61.53;;;29.37;;
7479;SDS011;3781;42.272;22.658;2023-12-22T09:45:49;58.57;;;29.43;;
7479;SDS011;3781;42.272;22.658;2023-12-22T09:48:17;70.17;;;29.03;;
7479;SDS011;3781;42.272;22.658;2023-12-22T09:50:47;57.53;;;30.57;;
7479;SDS011;3781;42.272;22.658;2023-12-22T09:53:14;84.80;;;37.53;;
7479;SDS011;3781;42.272;22.658;2023-12-22T09:55:42;73.90;;;31.63;;
7479;SDS011;3781;42.272;22.658;2023-12-22T09:58:12;79.07;;;34.40;;
7479;SDS011;3781;42.272;22.658;2023-12-22T10:00:41;79.37;;;30.67;;
7479;SDS011;3781;42.272;22.658;2023-12-22T10:03:09;48.60;;;22.87;;
7479;SDS011;3781;42.272;22.658;2023-12-22T10:05:38;37.00;;;17.77;;
7479;SDS011;3781;42.272;22.658;2023-12-22T10:08:07;30.93;;;15.63;;
7479;SDS011;3781;42.272;22.658;2023-12-22T10:10:37;18.33;;;12.23;;
7479;SDS011;3781;42.272;22.658;2023-12-22T10:13:05;18.50;;;11.93;;
7479;SDS011;3781;42.272;22.658;2023-12-22T10:15:35;31.03;;;14.40;;
7479;SDS011;3781;42.272;22.658;2023-12-22T10:18:05;5.73;;;4.33;;
7479;SDS011;3781;42.272;22.658;2023-12-22T10:20:32;17.50;;;10.47;;
7479;SDS011;3781;42.272;22.658;2023-12-22T10:23:00;32.00;;;15.60;;
7479;SDS011;3781;42.272;22.658;2023-12-22T10:25:29;53.50;;;28.17;;
7479;SDS011;3781;42.272;22.658;2023-12-22T10:27:56;39.60;;;19.23;;
7479;SDS011;3781;42.272;22.658;2023-12-22T10:30:22;49.27;;;24.63;;
7479;SDS011;3781;42.272;22.658;2023-12-22T10:32:50;53.37;;;23.93;;
7479;SDS011;3781;42.272;22.658;2023-12-22T10:35:17;45.13;;;24.10;;
7479;SDS011;3781;42.272;22.658;2023-12-22T10:37:45;48.00;;;25.60;;
7479;SDS011;3781;42.272;22.658;2023-12-22T10:40:13;25.67;;;15.43;;
7479;SDS011;3781;42.272;22.658;2023-12-22T10:42:41;41.07;;;19.77;;
7479;SDS011;3781;42.272;22.658;2023-12-22T10:45:08;43.27;;;24.23;;
7479;SDS011;3781;42.272;22.658;2023-12-22T10:47:35;50.83;;;23.97;;
7479;SDS011;3781;42.272;22.658;2023-12-22T10:50:04;36.20;;;23.40;;
7479;SDS011;3781;42.272;22.658;2023-12-22T10:52:32;37.20;;;22.80;;
7479;SDS011;3781;42.272;22.658;2023-12-22T10:54:58;57.30;;;24.50;;
7479;SDS011;3781;42.272;22.658;2023-12-22T10:57:26;27.37;;;18.17;;
7479;SDS011;3781;42.272;22.658;2023-12-22T10:59:55;53.23;;;22.97;;
7479;SDS011;3781;42.272;22.658;2023-12-22T11:02:25;51.40;;;29.43;;
7479;SDS011;3781;42.272;22.658;2023-12-22T11:04:56;36.97;;;21.50;;
7479;SDS011;3781;42.272;22.658;2023-12-22T11:07:27;32.27;;;16.73;;
7479;SDS011;3781;42.272;22.658;2023-12-22T11:09:55;17.43;;;10.67;;
7479;SDS011;3781;42.272;22.658;2023-12-22T11:12:23;8.23;;;5.27;;
7479;SDS011;3781;42.272;22.658;2023-12-22T11:14:52;40.73;;;17.77;;
7479;SDS011;3781;42.272;22.658;2023-12-22T11:17:22;31.77;;;17.03;;
7479;SDS011;3781;42.272;22.658;2023-12-22T11:19:49;6.17;;;5.23;;
7479;SDS011;3781;42.272;22.658;2023-12-22T11:22:20;9.33;;;8.50;;
7479;SDS011;3781;42.272;22.658;2023-12-22T11:24:48;8.33;;;5.50;;
7479;SDS011;3781;42.272;22.658;2023-12-22T11:27:16;3.57;;;2.47;;
7479;SDS011;3781;42.272;22.658;2023-12-22T11:29:44;0.80;;;0.77;;
7479;SDS011;3781;42.272;22.658;2023-12-22T11:32:16;1.97;;;1.23;;
7479;SDS011;3781;42.272;22.658;2023-12-22T11:34:44;0.60;;;0.43;;
7479;SDS011;3781;42.272;22.658;2023-12-22T11:37:13;1.30;;;1.20;;
7479;SDS011;3781;42.272;22.658;2023-12-22T11:39:40;4.23;;;0.23;;
7479;SDS011;3781;42.272;22.658;2023-12-22T11:42:12;0.37;;;0.37;;
7479;SDS011;3781;42.272;22.658;2023-12-22T11:44:42;0.07;;;0.07;;
7479;SDS011;3781;42.272;22.658;2023-12-22T11:47:10;4.83;;;0.30;;
7479;SDS011;3781;42.272;22.658;2023-12-22T11:49:39;0.40;;;0.40;;
7479;SDS011;3781;42.272;22.658;2023-12-22T11:52:10;0.23;;;0.20;;
7479;SDS011;3781;42.272;22.658;2023-12-22T11:54:45;2.00;;;1.63;;
7479;SDS011;3781;42.272;22.658;2023-12-22T11:57:28;0.50;;;0.30;;
7479;SDS011;3781;42.272;22.658;2023-12-22T11:59:56;1.17;;;1.17;;
7479;SDS011;3781;42.272;22.658;2023-12-22T12:02:24;1.23;;;1.20;;
7479;SDS011;3781;42.272;22.658;2023-12-22T12:04:52;2.57;;;1.40;;
7479;SDS011;3781;42.272;22.658;2023-12-22T12:10:05;21.80;;;7.47;;
7479;SDS011;3781;42.272;22.658;2023-12-22T12:12:33;23.70;;;12.60;;
7479;SDS011;3781;42.272;22.658;2023-12-22T12:15:05;40.03;;;16.87;;
7479;SDS011;3781;42.272;22.658;2023-12-22T12:17:34;25.63;;;15.00;;
7479;SDS011;3781;42.272;22.658;2023-12-22T12:20:06;29.90;;;10.13;;
7479;SDS011;3781;42.272;22.658;2023-12-22T12:22:37;29.43;;;11.97;;
7479;SDS011;3781;42.272;22.658;2023-12-22T12:25:08;33.80;;;15.53;;
7479;SDS011;3781;42.272;22.658;2023-12-22T12:27:37;19.30;;;10.87;;
7479;SDS011;3781;42.272;22.658;2023-12-22T12:30:14;17.27;;;8.70;;
7479;SDS011;3781;42.272;22.658;2023-12-22T12:32:45;10.27;;;6.17;;
7479;SDS011;3781;42.272;22.658;2023-12-22T12:35:18;6.27;;;4.93;;
7479;SDS011;3781;42.272;22.658;2023-12-22T12:37:48;25.77;;;11.37;;
7479;SDS011;3781;42.272;22.658;2023-12-22T12:40:16;18.07;;;11.60;;
7479;SDS011;3781;42.272;22.658;2023-12-22T12:42:50;12.50;;;8.60;;
7479;SDS011;3781;42.272;22.658;2023-12-22T12:45:21;23.10;;;11.90;;
7479;SDS011;3781;42.272;22.658;2023-12-22T12:47:54;23.60;;;15.20;;
7479;SDS011;3781;42.272;22.658;2023-12-22T12:50:23;21.33;;;13.83;;
7479;SDS011;3781;42.272;22.658;2023-12-22T12:52:51;17.70;;;10.23;;
7479;SDS011;3781;42.272;22.658;2023-12-22T12:55:19;6.63;;;5.27;;
7479;SDS011;3781;42.272;22.658;2023-12-22T12:57:47;15.10;;;8.97;;
7479;SDS011;3781;42.272;22.658;2023-12-22T13:00:15;9.67;;;7.60;;
7479;SDS011;3781;42.272;22.658;2023-12-22T13:02:43;8.77;;;5.67;;
7479;SDS011;3781;42.272;22.658;2023-12-22T13:05:19;0.30;;;0.30;;
7479;SDS011;3781;42.272;22.658;2023-12-22T13:07:48;0.70;;;0.50;;
7479;SDS011;3781;42.272;22.658;2023-12-22T13:10:21;4.80;;;2.40;;
7479;SDS011;3781;42.272;22.658;2023-12-22T13:12:48;0.10;;;0.10;;
7479;SDS011;3781;42.272;22.658;2023-12-22T13:15:16;0.10;;;0.10;;
7479;SDS011;3781;42.272;22.658;2023-12-22T13:17:43;0.00;;;0.00;;
7479;SDS011;3781;42.272;22.658;2023-12-22T13:20:10;9.33;;;2.57;;
7479;SDS011;3781;42.272;22.658;2023-12-22T13:22:37;3.00;;;1.10;;
7479;SDS011;3781;42.272;22.658;2023-12-22T13:25:06;3.70;;;1.70;;
7479;SDS011;3781;42.272;22.658;2023-12-22T13:27:43;2.13;;;2.03;;
7479;SDS011;3781;42.272;22.658;2023-12-22T13:30:10;0.97;;;0.63;;
7479;SDS011;3781;42.272;22.658;2023-12-22T13:32:37;0.57;;;0.57;;
7479;SDS011;3781;42.272;22.658;2023-12-22T13:35:04;2.77;;;1.23;;
7479;SDS011;3781;42.272;22.658;2023-12-22T13:37:31;1.93;;;0.97;;
7479;SDS011;3781;42.272;22.658;2023-12-22T13:39:58;1.63;;;0.90;;
7479;SDS011;3781;42.272;22.658;2023-12-22T13:42:26;5.50;;;2.47;;
7479;SDS011;3781;42.272;22.658;2023-12-22T13:44:53;1.90;;;1.07;;
7479;SDS011;3781;42.272;22.658;2023-12-22T13:47:20;0.87;;;0.77;;
7479;SDS011;3781;42.272;22.658;2023-12-22T13:49:49;0.07;;;0.07;;
7479;SDS011;3781;42.272;22.658;2023-12-22T13:52:26;0.40;;;0.20;;
7479;SDS011;3781;42.272;22.658;2023-12-22T13:54:56;2.10;;;1.13;;
7479;SDS011;3781;42.272;22.658;2023-12-22T13:57:27;0.83;;;0.83;;
7479;SDS011;3781;42.272;22.658;2023-12-22T13:59:54;0.10;;;0.10;;
7479;SDS011;3781;42.272;22.658;2023-12-22T14:02:21;0.00;;;0.00;;
7479;SDS011;3781;42.272;22.658;2023-12-22T14:04:48;0.50;;;0.50;;
7479;SDS011;3781;42.272;22.658;2023-12-22T14:07:16;2.70;;;2.07;;
7479;SDS011;3781;42.272;22.658;2023-12-22T14:09:44;5.00;;;2.20;;
7479;SDS011;3781;42.272;22.658;2023-12-22T14:12:10;6.87;;;0.50;;
7479;SDS011;3781;42.272;22.658;2023-12-22T14:14:39;0.00;;;0.00;;
7479;SDS011;3781;42.272;22.658;2023-12-22T14:17:06;0.73;;;0.73;;
7479;SDS011;3781;42.272;22.658;2023-12-22T14:19:33;1.63;;;1.53;;
7479;SDS011;3781;42.272;22.658;2023-12-22T14:21:59;0.93;;;0.93;;
7479;SDS011;3781;42.272;22.658;2023-12-22T14:24:26;1.10;;;1.10;;
7479;SDS011;3781;42.272;22.658;2023-12-22T14:26:53;2.00;;;0.57;;
7479;SDS011;3781;42.272;22.658;2023-12-22T14:29:21;0.13;;;0.10;;
7479;SDS011;3781;42.272;22.658;2023-12-22T14:31:50;1.17;;;0.53;;
7479;SDS011;3781;42.272;22.658;2023-12-22T14:34:17;4.20;;;2.00;;
7479;SDS011;3781;42.272;22.658;2023-12-22T14:36:44;2.03;;;0.97;;
7479;SDS011;3781;42.272;22.658;2023-12-22T14:39:11;1.27;;;1.27;;
7479;SDS011;3781;42.272;22.658;2023-12-22T14:41:38;0.87;;;0.63;;
7479;SDS011;3781;42.272;22.658;2023-12-22T14:44:06;0.10;;;0.10;;
7479;SDS011;3781;42.272;22.658;2023-12-22T14:46:33;0.00;;;0.00;;
7479;SDS011;3781;42.272;22.658;2023-12-22T14:49:04;1.40;;;0.60;;